sensor_id;sensor_type;location;lat;lon;timestamp;pressure;altitude;pressure_sealevel;temperature;humidity
58973;BME280;44750;52.040;7.472;2024-01-25T00:02:20;101098.97;;;8.50;100.00
58973;BME280;44750;52.040;7.472;2024-01-25T00:07:20;101084.88;;;8.46;100.00
58973;BME280;44750;52.040;7.472;2024-01-25T00:12:21;101096.03;;;8.42;100.00
58973;BME280;44750;52.040;7.472;2024-01-25T00:17:21;101106.06;;;8.40;100.00
58973;BME280;44750;52.040;7.472;2024-01-25T00:22:21;101092.00;;;8.36;100.00
58973;BME280;44750;52.040;7.472;2024-01-25T00:27:21;101105.50;;;8.36;100.00
58973;BME280;44750;52.040;7.472;2024-01-25T00:32:22;101101.34;;;8.32;100.00
58973;BME280;44750;52.040;7.472;2024-01-25T00:37:22;101102.69;;;8.26;100.00
58973;BME280;44750;52.040;7.472;2024-01-25T00:42:23;101103.72;;;8.25;100.00
58973;BME280;44750;52.040;7.472;2024-01-25T00:47:23;101119.63;;;8.28;100.00
58973;BME280;44750;52.040;7.472;2024-01-25T00:52:24;101116.47;;;8.23;100.00
58973;BME280;44750;52.040;7.472;2024-01-25T00:57:25;101124.41;;;8.25;100.00
58973;BME280;44750;52.040;7.472;2024-01-25T01:02:26;101137.66;;;8.28;100.00
58973;BME280;44750;52.040;7.472;2024-01-25T01:07:27;101128.00;;;8.25;100.00
58973;BME280;44750;52.040;7.472;2024-01-25T01:12:27;101122.81;;;8.22;100.00
58973;BME280;44750;52.040;7.472;2024-01-25T01:17:27;101124.94;;;8.18;100.00
58973;BME280;44750;52.040;7.472;2024-01-25T01:22:28;101133.41;;;8.14;100.00
58973;BME280;44750;52.040;7.472;2024-01-25T01:27:28;101138.94;;;8.12;100.00
58973;BME280;44750;52.040;7.472;2024-01-25T01:32:28;101144.59;;;8.09;100.00
58973;BME280;44750;52.040;7.472;2024-01-25T01:37:28;101135.75;;;8.07;100.00
58973;BME280;44750;52.040;7.472;2024-01-25T01:42:31;101151.69;;;7.99;100.00
58973;BME280;44750;52.040;7.472;2024-01-25T01:47:31;101135.31;;;7.91;100.00
58973;BME280;44750;52.040;7.472;2024-01-25T01:52:32;101139.47;;;7.83;100.00
58973;BME280;44750;52.040;7.472;2024-01-25T01:57:32;101138.75;;;7.81;100.00
58973;BME280;44750;52.040;7.472;2024-01-25T02:02:33;101144.25;;;7.68;100.00
58973;BME280;44750;52.040;7.472;2024-01-25T02:07:33;101157.13;;;7.65;100.00
58973;BME280;44750;52.040;7.472;2024-01-25T02:12:34;101162.63;;;7.63;100.00
58973;BME280;44750;52.040;7.472;2024-01-25T02:17:34;101168.41;;;7.59;100.00
58973;BME280;44750;52.040;7.472;2024-01-25T02:22:34;101171.81;;;7.49;100.00
58973;BME280;44750;52.040;7.472;2024-01-25T02:27:35;101156.53;;;7.39;100.00
58973;BME280;44750;52.040;7.472;2024-01-25T02:32:35;101157.84;;;7.22;100.00
58973;BME280;44750;52.040;7.472;2024-01-25T02:37:35;101175.84;;;7.21;100.00
58973;BME280;44750;52.040;7.472;2024-01-25T02:42:35;101198.94;;;7.24;100.00
58973;BME280;44750;52.040;7.472;2024-01-25T02:47:36;101208.03;;;7.23;100.00
58973;BME280;44750;52.040;7.472;2024-01-25T02:52:36;101206.56;;;7.18;100.00
58973;BME280;44750;52.040;7.472;2024-01-25T02:57:36;101203.13;;;7.16;100.00
58973;BME280;44750;52.040;7.472;2024-01-25T03:02:36;101206.28;;;7.10;100.00
58973;BME280;44750;52.040;7.472;2024-01-25T03:07:37;101214.84;;;7.04;100.00
58973;BME280;44750;52.040;7.472;2024-01-25T03:12:37;101223.13;;;7.01;100.00
58973;BME280;44750;52.040;7.472;2024-01-25T03:17:37;101228.88;;;6.96;100.00
58973;BME280;44750;52.040;7.472;2024-01-25T03:22:38;101241.81;;;6.91;100.00
58973;BME280;44750;52.040;7.472;2024-01-25T03:27:38;101235.81;;;6.88;100.00
58973;BME280;44750;52.040;7.472;2024-01-25T03:32:38;101238.97;;;6.81;100.00
58973;BME280;44750;52.040;7.472;2024-01-25T03:37:38;101261.13;;;6.85;100.00
58973;BME280;44750;52.040;7.472;2024-01-25T03:42:39;101259.41;;;6.84;100.00
58973;BME280;44750;52.040;7.472;2024-01-25T03:47:39;101266.63;;;6.83;100.00
58973;BME280;44750;52.040;7.472;2024-01-25T03:52:39;101275.88;;;6.79;100.00
58973;BME280;44750;52.040;7.472;2024-01-25T03:57:39;101285.16;;;6.75;100.00
58973;BME280;44750;52.040;7.472;2024-01-25T04:02:40;101281.75;;;6.73;100.00
58973;BME280;44750;52.040;7.472;2024-01-25T04:07:40;101290.66;;;6.74;100.00
58973;BME280;44750;52.040;7.472;2024-01-25T04:12:40;101289.91;;;6.72;100.00
58973;BME280;44750;52.040;7.472;2024-01-25T04:17:40;101283.91;;;6.68;100.00
58973;BME280;44750;52.040;7.472;2024-01-25T04:22:41;101282.75;;;6.59;100.00
58973;BME280;44750;52.040;7.472;2024-01-25T04:27:41;101292.16;;;6.53;100.00
58973;BME280;44750;52.040;7.472;2024-01-25T04:32:41;101295.78;;;6.52;100.00
58973;BME280;44750;52.040;7.472;2024-01-25T04:37:41;101294.53;;;6.45;100.00
58973;BME280;44750;52.040;7.472;2024-01-25T04:42:42;101312.59;;;6.43;100.00
58973;BME280;44750;52.040;7.472;2024-01-25T04:47:42;101316.59;;;6.38;100.00
58973;BME280;44750;52.040;7.472;2024-01-25T04:52:42;101325.63;;;6.36;100.00
58973;BME280;44750;52.040;7.472;2024-01-25T04:57:42;101332.84;;;6.36;100.00
58973;BME280;44750;52.040;7.472;2024-01-25T05:02:42;101340.94;;;6.36;100.00
58973;BME280;44750;52.040;7.472;2024-01-25T05:07:43;101336.75;;;6.32;100.00
58973;BME280;44750;52.040;7.472;2024-01-25T05:12:43;101331.03;;;6.24;100.00
58973;BME280;44750;52.040;7.472;2024-01-25T05:17:43;101334.19;;;6.17;100.00
58973;BME280;44750;52.040;7.472;2024-01-25T05:22:43;101341.69;;;6.12;100.00
58973;BME280;44750;52.040;7.472;2024-01-25T05:27:44;101348.03;;;6.11;100.00
58973;BME280;44750;52.040;7.472;2024-01-25T05:32:44;101346.53;;;6.07;100.00
58973;BME280;44750;52.040;7.472;2024-01-25T05:37:44;101338.88;;;5.88;100.00
58973;BME280;44750;52.040;7.472;2024-01-25T05:42:44;101359.53;;;6.00;100.00
58973;BME280;44750;52.040;7.472;2024-01-25T05:47:45;101366.31;;;5.93;100.00
58973;BME280;44750;52.040;7.472;2024-01-25T05:52:45;101361.00;;;5.92;100.00
58973;BME280;44750;52.040;7.472;2024-01-25T05:57:45;101356.81;;;5.88;100.00
58973;BME280;44750;52.040;7.472;2024-01-25T06:02:46;101361.75;;;5.81;100.00
58973;BME280;44750;52.040;7.472;2024-01-25T06:07:46;101361.88;;;5.79;100.00
58973;BME280;44750;52.040;7.472;2024-01-25T06:12:46;101371.09;;;5.75;100.00
58973;BME280;44750;52.040;7.472;2024-01-25T06:17:46;101369.59;;;5.71;100.00
58973;BME280;44750;52.040;7.472;2024-01-25T06:22:47;101374.31;;;5.67;100.00
58973;BME280;44750;52.040;7.472;2024-01-25T06:27:47;101373.03;;;5.60;100.00
58973;BME280;44750;52.040;7.472;2024-01-25T06:32:47;101376.00;;;5.56;100.00
58973;BME280;44750;52.040;7.472;2024-01-25T06:37:47;101376.72;;;5.45;100.00
58973;BME280;44750;52.040;7.472;2024-01-25T06:42:48;101399.00;;;5.47;100.00
58973;BME280;44750;52.040;7.472;2024-01-25T06:47:48;101395.09;;;5.38;100.00
58973;BME280;44750;52.040;7.472;2024-01-25T06:52:48;101392.50;;;5.36;100.00
58973;BME280;44750;52.040;7.472;2024-01-25T06:57:49;101400.31;;;5.27;100.00
58973;BME280;44750;52.040;7.472;2024-01-25T07:02:49;101411.69;;;5.30;100.00
58973;BME280;44750;52.040;7.472;2024-01-25T07:07:49;101416.09;;;5.31;100.00
58973;BME280;44750;52.040;7.472;2024-01-25T07:12:49;101418.91;;;5.30;100.00
58973;BME280;44750;52.040;7.472;2024-01-25T07:17:50;101433.00;;;5.33;100.00
58973;BME280;44750;52.040;7.472;2024-01-25T07:22:50;101444.56;;;5.34;100.00
58973;BME280;44750;52.040;7.472;2024-01-25T07:27:50;101441.88;;;5.34;100.00
58973;BME280;44750;52.040;7.472;2024-01-25T07:32:50;101441.03;;;5.33;100.00
58973;BME280;44750;52.040;7.472;2024-01-25T07:37:51;101461.66;;;5.33;100.00
58973;BME280;44750;52.040;7.472;2024-01-25T07:42:51;101461.47;;;5.36;100.00
58973;BME280;44750;52.040;7.472;2024-01-25T07:47:51;101464.03;;;5.38;100.00
58973;BME280;44750;52.040;7.472;2024-01-25T07:52:52;101473.28;;;5.46;100.00
58973;BME280;44750;52.040;7.472;2024-01-25T07:57:52;101475.44;;;5.41;100.00
58973;BME280;44750;52.040;7.472;2024-01-25T08:02:53;101495.84;;;5.44;100.00
58973;BME280;44750;52.040;7.472;2024-01-25T08:07:53;101510.50;;;5.52;100.00
58973;BME280;44750;52.040;7.472;2024-01-25T08:12:53;101517.81;;;5.50;100.00
58973;BME280;44750;52.040;7.472;2024-01-25T08:17:53;101561.69;;;5.64;100.00
58973;BME280;44750;52.040;7.472;2024-01-25T08:22:54;101568.50;;;5.69;100.00
58973;BME280;44750;52.040;7.472;2024-01-25T08:27:54;101580.28;;;5.67;100.00
58973;BME280;44750;52.040;7.472;2024-01-25T08:32:55;101596.28;;;5.83;100.00
58973;BME280;44750;52.040;7.472;2024-01-25T08:37:55;101583.50;;;5.86;100.00
58973;BME280;44750;52.040;7.472;2024-01-25T08:42:55;101589.06;;;5.98;100.00
58973;BME280;44750;52.040;7.472;2024-01-25T08:47:56;101578.00;;;6.02;100.00
58973;BME280;44750;52.040;7.472;2024-01-25T08:52:56;101579.53;;;6.07;100.00
58973;BME280;44750;52.040;7.472;2024-01-25T08:57:56;101577.28;;;6.13;100.00
58973;BME280;44750;52.040;7.472;2024-01-25T09:02:56;101587.44;;;6.23;100.00
58973;BME280;44750;52.040;7.472;2024-01-25T09:07:57;101586.75;;;6.19;100.00
58973;BME280;44750;52.040;7.472;2024-01-25T09:12:57;101602.16;;;6.30;100.00
58973;BME280;44750;52.040;7.472;2024-01-25T09:17:57;101617.06;;;6.48;100.00
58973;BME280;44750;52.040;7.472;2024-01-25T09:22:57;101622.03;;;6.55;100.00
58973;BME280;44750;52.040;7.472;2024-01-25T09:27:58;101611.59;;;6.63;100.00
58973;BME280;44750;52.040;7.472;2024-01-25T09:32:58;101595.47;;;6.63;100.00
58973;BME280;44750;52.040;7.472;2024-01-25T09:37:58;101605.72;;;6.71;100.00
58973;BME280;44750;52.040;7.472;2024-01-25T09:42:59;101616.38;;;6.98;100.00
58973;BME280;44750;52.040;7.472;2024-01-25T09:47:59;101612.38;;;7.03;100.00
58973;BME280;44750;52.040;7.472;2024-01-25T09:53:00;101606.78;;;7.07;100.00
58973;BME280;44750;52.040;7.472;2024-01-25T09:58:00;101609.16;;;7.11;100.00
58973;BME280;44750;52.040;7.472;2024-01-25T10:03:00;101627.66;;;7.29;100.00
58973;BME280;44750;52.040;7.472;2024-01-25T10:08:01;101617.13;;;7.26;100.00
58973;BME280;44750;52.040;7.472;2024-01-25T10:13:01;101624.75;;;7.32;100.00
58973;BME280;44750;52.040;7.472;2024-01-25T10:18:02;101633.69;;;7.45;100.00
58973;BME280;44750;52.040;7.472;2024-01-25T10:23:02;101636.25;;;7.60;100.00
58973;BME280;44750;52.040;7.472;2024-01-25T10:28:06;101612.00;;;7.60;100.00
58973;BME280;44750;52.040;7.472;2024-01-25T10:33:07;101599.78;;;7.67;100.00
58973;BME280;44750;52.040;7.472;2024-01-25T10:38:09;101603.31;;;7.80;100.00
58973;BME280;44750;52.040;7.472;2024-01-25T10:43:09;101597.19;;;8.02;100.00
58973;BME280;44750;52.040;7.472;2024-01-25T10:48:10;101585.81;;;8.10;100.00
58973;BME280;44750;52.040;7.472;2024-01-25T10:53:11;101563.78;;;8.16;100.00
58973;BME280;44750;52.040;7.472;2024-01-25T10:58:16;101546.63;;;8.17;100.00
58973;BME280;44750;52.040;7.472;2024-01-25T11:03:17;101556.09;;;8.59;100.00
58973;BME280;44750;52.040;7.472;2024-01-25T11:08:19;101544.84;;;8.87;100.00
58973;BME280;44750;52.040;7.472;2024-01-25T11:13:28;101544.59;;;9.36;100.00
58973;BME280;44750;52.040;7.472;2024-01-25T11:18:29;101554.25;;;10.37;100.00
58973;BME280;44750;52.040;7.472;2024-01-25T11:23:31;101544.00;;;11.14;100.00
58973;BME280;44750;52.040;7.472;2024-01-25T11:28:32;101488.25;;;11.31;100.00
58973;BME280;44750;52.040;7.472;2024-01-25T11:33:32;101484.94;;;11.98;100.00
58973;BME280;44750;52.040;7.472;2024-01-25T11:38:36;101391.41;;;11.82;100.00
58973;BME280;44750;52.040;7.472;2024-01-25T11:43:36;101319.66;;;11.47;100.00
58973;BME280;44750;52.040;7.472;2024-01-25T11:48:40;101253.91;;;10.67;100.00
58973;BME280;44750;52.040;7.472;2024-01-25T11:53:40;101246.22;;;10.21;100.00
58973;BME280;44750;52.040;7.472;2024-01-25T11:58:41;101315.50;;;10.84;100.00
58973;BME280;44750;52.040;7.472;2024-01-25T12:03:41;101314.78;;;11.70;100.00
58973;BME280;44750;52.040;7.472;2024-01-25T12:08:42;101265.69;;;11.64;100.00
58973;BME280;44750;52.040;7.472;2024-01-25T12:13:42;101261.31;;;11.91;100.00
58973;BME280;44750;52.040;7.472;2024-01-25T12:18:43;101306.91;;;12.80;100.00
58973;BME280;44750;52.040;7.472;2024-01-25T12:23:44;101180.69;;;12.57;100.00
58973;BME280;44750;52.040;7.472;2024-01-25T12:28:45;101113.13;;;11.62;100.00
58973;BME280;44750;52.040;7.472;2024-01-25T12:33:45;101109.03;;;11.20;100.00
58973;BME280;44750;52.040;7.472;2024-01-25T12:38:46;101093.06;;;11.17;100.00
58973;BME280;44750;52.040;7.472;2024-01-25T12:43:46;101075.34;;;10.75;100.00
58973;BME280;44750;52.040;7.472;2024-01-25T12:48:46;101061.41;;;10.41;100.00
58973;BME280;44750;52.040;7.472;2024-01-25T12:53:48;101066.38;;;10.16;100.00
58973;BME280;44750;52.040;7.472;2024-01-25T12:58:49;101163.63;;;11.25;100.00
58973;BME280;44750;52.040;7.472;2024-01-25T13:03:49;101203.25;;;13.11;100.00
58973;BME280;44750;52.040;7.472;2024-01-25T13:08:49;101142.34;;;12.96;100.00
58973;BME280;44750;52.040;7.472;2024-01-25T13:13:49;101068.84;;;11.99;100.00
58973;BME280;44750;52.040;7.472;2024-01-25T13:18:50;101140.91;;;12.29;100.00
58973;BME280;44750;52.040;7.472;2024-01-25T13:23:50;101210.16;;;13.76;100.00
58973;BME280;44750;52.040;7.472;2024-01-25T13:28:50;101133.53;;;14.90;100.00
58973;BME280;44750;52.040;7.472;2024-01-25T13:33:50;101103.19;;;14.93;100.00
58973;BME280;44750;52.040;7.472;2024-01-25T13:38:51;101208.66;;;16.69;100.00
58973;BME280;44750;52.040;7.472;2024-01-25T13:43:51;100966.22;;;16.54;100.00
58973;BME280;44750;52.040;7.472;2024-01-25T13:48:51;100719.03;;;13.97;100.00
58973;BME280;44750;52.040;7.472;2024-01-25T13:53:51;100672.94;;;12.81;100.00
58973;BME280;44750;52.040;7.472;2024-01-25T13:58:52;100684.66;;;11.80;100.00
58973;BME280;44750;52.040;7.472;2024-01-25T14:03:52;100718.28;;;11.16;100.00
58973;BME280;44750;52.040;7.472;2024-01-25T14:08:52;100786.41;;;11.03;100.00
58973;BME280;44750;52.040;7.472;2024-01-25T14:13:53;100835.66;;;10.71;100.00
58973;BME280;44750;52.040;7.472;2024-01-25T14:18:53;100876.72;;;10.66;100.00
58973;BME280;44750;52.040;7.472;2024-01-25T14:23:53;100899.63;;;10.72;100.00
58973;BME280;44750;52.040;7.472;2024-01-25T14:28:53;100937.84;;;10.97;100.00
58973;BME280;44750;52.040;7.472;2024-01-25T14:33:54;100980.50;;;11.23;100.00
58973;BME280;44750;52.040;7.472;2024-01-25T14:38:54;100981.81;;;11.46;100.00
58973;BME280;44750;52.040;7.472;2024-01-25T14:43:54;100915.69;;;11.11;100.00
58973;BME280;44750;52.040;7.472;2024-01-25T14:48:54;100907.44;;;10.85;100.00
58973;BME280;44750;52.040;7.472;2024-01-25T14:53:54;100888.56;;;10.65;100.00
58973;BME280;44750;52.040;7.472;2024-01-25T14:58:55;100877.53;;;10.39;100.00
58973;BME280;44750;52.040;7.472;2024-01-25T15:03:55;100886.09;;;10.25;100.00
58973;BME280;44750;52.040;7.472;2024-01-25T15:08:55;100894.84;;;9.99;100.00
58973;BME280;44750;52.040;7.472;2024-01-25T15:13:56;100876.09;;;9.68;100.00
58973;BME280;44750;52.040;7.472;2024-01-25T15:18:56;100894.44;;;9.45;100.00
58973;BME280;44750;52.040;7.472;2024-01-25T15:23:57;100917.44;;;9.19;100.00
58973;BME280;44750;52.040;7.472;2024-01-25T15:28:57;100952.66;;;9.08;100.00
58973;BME280;44750;52.040;7.472;2024-01-25T15:33:57;100950.19;;;8.85;100.00
58973;BME280;44750;52.040;7.472;2024-01-25T15:38:57;100970.16;;;8.73;100.00
58973;BME280;44750;52.040;7.472;2024-01-25T15:43:58;100952.88;;;8.55;100.00
58973;BME280;44750;52.040;7.472;2024-01-25T15:48:58;100975.06;;;8.37;100.00
58973;BME280;44750;52.040;7.472;2024-01-25T15:53:58;100978.19;;;8.42;100.00
58973;BME280;44750;52.040;7.472;2024-01-25T15:58:58;100969.19;;;8.32;100.00
58973;BME280;44750;52.040;7.472;2024-01-25T16:03:59;100978.78;;;8.25;100.00
58973;BME280;44750;52.040;7.472;2024-01-25T16:09:02;100970.44;;;8.07;100.00
58973;BME280;44750;52.040;7.472;2024-01-25T16:14:02;100993.13;;;8.04;100.00
58973;BME280;44750;52.040;7.472;2024-01-25T16:19:03;100995.22;;;8.00;100.00
58973;BME280;44750;52.040;7.472;2024-01-25T16:24:03;101009.44;;;8.02;100.00
58973;BME280;44750;52.040;7.472;2024-01-25T16:29:03;101012.13;;;8.02;100.00
58973;BME280;44750;52.040;7.472;2024-01-25T16:34:04;101006.25;;;7.97;100.00
58973;BME280;44750;52.040;7.472;2024-01-25T16:39:04;101003.22;;;7.91;100.00
58973;BME280;44750;52.040;7.472;2024-01-25T16:44:04;101020.88;;;7.83;100.00
58973;BME280;44750;52.040;7.472;2024-01-25T16:49:04;101010.16;;;7.72;100.00
58973;BME280;44750;52.040;7.472;2024-01-25T16:54:05;101022.03;;;7.69;100.00
58973;BME280;44750;52.040;7.472;2024-01-25T16:59:05;101015.41;;;7.62;100.00
58973;BME280;44750;52.040;7.472;2024-01-25T17:04:05;101025.34;;;7.73;100.00
58973;BME280;44750;52.040;7.472;2024-01-25T17:09:05;101019.19;;;7.71;100.00
58973;BME280;44750;52.040;7.472;2024-01-25T17:14:06;101011.38;;;7.68;100.00
58973;BME280;44750;52.040;7.472;2024-01-25T17:19:06;101014.09;;;7.57;100.00
58973;BME280;44750;52.040;7.472;2024-01-25T17:24:06;101018.25;;;7.61;100.00
58973;BME280;44750;52.040;7.472;2024-01-25T17:29:07;101030.97;;;7.70;100.00
58973;BME280;44750;52.040;7.472;2024-01-25T17:34:07;101011.75;;;7.63;100.00
58973;BME280;44750;52.040;7.472;2024-01-25T17:39:07;101008.56;;;7.58;100.00
58973;BME280;44750;52.040;7.472;2024-01-25T17:44:07;101007.13;;;7.54;100.00
58973;BME280;44750;52.040;7.472;2024-01-25T17:49:07;101023.16;;;7.56;100.00
58973;BME280;44750;52.040;7.472;2024-01-25T17:54:10;101013.38;;;7.55;100.00
58973;BME280;44750;52.040;7.472;2024-01-25T17:59:10;101013.38;;;7.55;100.00
58973;BME280;44750;52.040;7.472;2024-01-25T18:04:10;101011.66;;;7.53;100.00
58973;BME280;44750;52.040;7.472;2024-01-25T18:09:10;101005.66;;;7.50;100.00
58973;BME280;44750;52.040;7.472;2024-01-25T18:14:11;101021.47;;;7.43;100.00
58973;BME280;44750;52.040;7.472;2024-01-25T18:19:11;101031.88;;;7.36;100.00
58973;BME280;44750;52.040;7.472;2024-01-25T18:24:11;101042.31;;;7.41;100.00
58973;BME280;44750;52.040;7.472;2024-01-25T18:29:11;101056.63;;;7.42;100.00
58973;BME280;44750;52.040;7.472;2024-01-25T18:34:12;101049.16;;;7.34;100.00
58973;BME280;44750;52.040;7.472;2024-01-25T18:39:12;101070.47;;;7.37;100.00
58973;BME280;44750;52.040;7.472;2024-01-25T18:44:12;101075.34;;;7.43;100.00
58973;BME280;44750;52.040;7.472;2024-01-25T18:49:12;101078.78;;;7.45;100.00
58973;BME280;44750;52.040;7.472;2024-01-25T18:54:13;101065.66;;;7.41;100.00
58973;BME280;44750;52.040;7.472;2024-01-25T18:59:13;101066.91;;;7.25;100.00
58973;BME280;44750;52.040;7.472;2024-01-25T19:04:14;101081.47;;;7.11;100.00
58973;BME280;44750;52.040;7.472;2024-01-25T19:09:14;101090.25;;;7.02;100.00
58973;BME280;44750;52.040;7.472;2024-01-25T19:14:15;101095.19;;;7.08;100.00
58973;BME280;44750;52.040;7.472;2024-01-25T19:19:15;101119.03;;;7.01;100.00
58973;BME280;44750;52.040;7.472;2024-01-25T19:24:15;101137.88;;;7.01;100.00
58973;BME280;44750;52.040;7.472;2024-01-25T19:29:15;101151.19;;;7.03;100.00
58973;BME280;44750;52.040;7.472;2024-01-25T19:34:16;101168.44;;;6.89;100.00
58973;BME280;44750;52.040;7.472;2024-01-25T19:39:16;101190.94;;;6.99;100.00
58973;BME280;44750;52.040;7.472;2024-01-25T19:44:16;101196.19;;;6.90;100.00
58973;BME280;44750;52.040;7.472;2024-01-25T19:49:16;101211.81;;;6.84;100.00
58973;BME280;44750;52.040;7.472;2024-01-25T19:54:17;101227.69;;;6.76;100.00
58973;BME280;44750;52.040;7.472;2024-01-25T19:59:17;101261.91;;;6.74;100.00
58973;BME280;44750;52.040;7.472;2024-01-25T20:04:18;101291.88;;;6.69;100.00
58973;BME280;44750;52.040;7.472;2024-01-25T20:09:18;101337.06;;;6.77;100.00
58973;BME280;44750;52.040;7.472;2024-01-25T20:14:18;101369.34;;;6.77;100.00
58973;BME280;44750;52.040;7.472;2024-01-25T20:19:19;101412.81;;;6.84;100.00
58973;BME280;44750;52.040;7.472;2024-01-25T20:24:19;101438.72;;;6.85;100.00
58973;BME280;44750;52.040;7.472;2024-01-25T20:29:19;101489.00;;;6.84;100.00
58973;BME280;44750;52.040;7.472;2024-01-25T20:34:19;101503.13;;;6.75;100.00
58973;BME280;44750;52.040;7.472;2024-01-25T20:39:20;101579.78;;;6.82;100.00
58973;BME280;44750;52.040;7.472;2024-01-25T20:44:20;101598.38;;;6.85;100.00
58973;BME280;44750;52.040;7.472;2024-01-25T20:49:20;101625.19;;;6.87;100.00
58973;BME280;44750;52.040;7.472;2024-01-25T20:54:20;101647.28;;;6.92;100.00
58973;BME280;44750;52.040;7.472;2024-01-25T20:59:21;101674.19;;;6.92;100.00
58973;BME280;44750;52.040;7.472;2024-01-25T21:04:21;101689.81;;;7.00;100.00
58973;BME280;44750;52.040;7.472;2024-01-25T21:09:22;101721.13;;;7.01;100.00
58973;BME280;44750;52.040;7.472;2024-01-25T21:14:22;101748.94;;;7.01;100.00
58973;BME280;44750;52.040;7.472;2024-01-25T21:19:23;101759.03;;;6.98;100.00
58973;BME280;44750;52.040;7.472;2024-01-25T21:24:23;101789.88;;;7.07;100.00
58973;BME280;44750;52.040;7.472;2024-01-25T21:29:23;101800.63;;;7.07;100.00
58973;BME280;44750;52.040;7.472;2024-01-25T21:34:23;101827.03;;;7.14;100.00
58973;BME280;44750;52.040;7.472;2024-01-25T21:39:23;101829.94;;;7.11;100.00
58973;BME280;44750;52.040;7.472;2024-01-25T21:44:24;101840.59;;;7.13;100.00
58973;BME280;44750;52.040;7.472;2024-01-25T21:49:24;101866.81;;;7.24;100.00
58973;BME280;44750;52.040;7.472;2024-01-25T21:54:24;101885.47;;;7.27;100.00
58973;BME280;44750;52.040;7.472;2024-01-25T21:59:24;101888.34;;;7.24;100.00
58973;BME280;44750;52.040;7.472;2024-01-25T22:04:25;101897.97;;;7.28;100.00
58973;BME280;44750;52.040;7.472;2024-01-25T22:09:25;101907.56;;;7.32;100.00
58973;BME280;44750;52.040;7.472;2024-01-25T22:14:25;101928.69;;;7.38;100.00
58973;BME280;44750;52.040;7.472;2024-01-25T22:19:26;101933.91;;;7.41;100.00
58973;BME280;44750;52.040;7.472;2024-01-25T22:24:26;101942.38;;;7.35;100.00
58973;BME280;44750;52.040;7.472;2024-01-25T22:29:26;101956.69;;;7.35;100.00
58973;BME280;44750;52.040;7.472;2024-01-25T22:34:26;101966.31;;;7.40;100.00
58973;BME280;44750;52.040;7.472;2024-01-25T22:39:27;101974.50;;;7.38;100.00
58973;BME280;44750;52.040;7.472;2024-01-25T22:44:27;102001.78;;;7.46;100.00
58973;BME280;44750;52.040;7.472;2024-01-25T22:49:27;101987.56;;;7.44;100.00
58973;BME280;44750;52.040;7.472;2024-01-25T22:54:28;102006.56;;;7.56;100.00
58973;BME280;44750;52.040;7.472;2024-01-25T22:59:29;102027.84;;;7.60;100.00
58973;BME280;44750;52.040;7.472;2024-01-25T23:04:29;102034.66;;;7.66;100.00
58973;BME280;44750;52.040;7.472;2024-01-25T23:09:29;102045.88;;;7.73;100.00
58973;BME280;44750;52.040;7.472;2024-01-25T23:14:29;102059.25;;;7.74;100.00
58973;BME280;44750;52.040;7.472;2024-01-25T23:19:29;102072.34;;;7.80;100.00
58973;BME280;44750;52.040;7.472;2024-01-25T23:24:30;102070.50;;;7.81;100.00
58973;BME280;44750;52.040;7.472;2024-01-25T23:29:30;102085.41;;;7.86;100.00
58973;BME280;44750;52.040;7.472;2024-01-25T23:34:30;102107.63;;;7.90;100.00
58973;BME280;44750;52.040;7.472;2024-01-25T23:39:30;102126.00;;;7.98;100.00
58973;BME280;44750;52.040;7.472;2024-01-25T23:44:31;102143.53;;;8.05;100.00
58973;BME280;44750;52.040;7.472;2024-01-25T23:49:31;102150.91;;;8.16;100.00
58973;BME280;44750;52.040;7.472;2024-01-25T23:54:32;102175.91;;;8.18;100.00
58973;BME280;44750;52.040;7.472;2024-01-25T23:59:32;102191.81;;;8.23;100.00
